Overview Statistics Trail Chart Weather Telemetry Raw packets
 

This is the latest recevied weather packets stored in our database for station/object N0KTA-2. If no packets are shown the sender has not sent any weather packets the latest 10 day(s).

<< 51 52 53 54 55 56 57 >>
Time Temp. Humidity Pressure Rain* Wind** Luminosity Snow
1787882303 27.78° C 50% 1012.3 hPa 0 mm - - -
1787881702 28.33° C 50% 1011.8 hPa 0 mm - - -
1787881103 28.89° C 49% 1011.8 hPa 0 mm - - -
1787880502 29.44° C 47% 1011.6 hPa 0 mm - - -
1787879903 30° C 47% 1011.4 hPa 0 mm - - -
1787879302 30° C 46% 1011.1 hPa 0 mm - - -
1787878703 30.56° C 45% 1011.2 hPa 0 mm - - -
1787878102 31.11° C 44% 1011.1 hPa 0 mm - - -
1787877503 31.67° C 44% 1011 hPa 0 mm - - -
1787876902 32.22° C 44% 1010.9 hPa 0 mm - - -
1787876303 32.22° C 45% 1011 hPa 0 mm - - -
1787875702 32.78° C 44% 1011 hPa 0 mm - - -
1787875103 32.78° C 44% 1011 hPa 0 mm - - -
1787874502 33.33° C 44% 1011 hPa 0 mm - - -
1787873903 33.33° C 43% 1011 hPa 0 mm - - -
1787873303 33.33° C 43% 1011.1 hPa 0 mm - - -
1787872702 33.33° C 44% 1011.2 hPa 0 mm - - -
1787872103 33.33° C 43% 1011.2 hPa 0 mm - - -
1787871502 33.33° C 42% 1011.3 hPa 0 mm - - -
1787870903 33.33° C 43% 1011.5 hPa 0 mm - - -
1787870302 33.33° C 42% 1011.6 hPa 0 mm - - -
1787869703 33.89° C 42% 1011.5 hPa 0 mm - - -
1787869102 33.89° C 42% 1011.6 hPa 0 mm - - -
1787868502 33.89° C 44% 1011.6 hPa 0 mm - - -
1787867908 33.33° C 43% 1011.8 hPa 0 mm - - -

* Rain latest hour (hover to see other rain measurements)
** Current wind speed in m/s (hover to see current wind gust speed)